createdAt,value
2018-07-15T00:00:09.284Z,1013.55
2018-07-15T00:00:49.840Z,1013.51
2018-07-15T00:01:30.412Z,1013.55
2018-07-15T00:02:10.969Z,1013.5
2018-07-15T00:02:51.543Z,1013.5
2018-07-15T00:03:32.107Z,1013.53
2018-07-15T00:04:12.679Z,1013.52
2018-07-15T00:04:53.251Z,1013.53
2018-07-15T00:05:33.813Z,1013.51
2018-07-15T00:06:14.372Z,1013.48
2018-07-15T00:06:54.922Z,1013.49
2018-07-15T00:07:35.479Z,1013.49
2018-07-15T00:08:16.025Z,1013.49
2018-07-15T00:08:56.597Z,1013.48
2018-07-15T00:09:37.151Z,1013.47
2018-07-15T00:10:17.718Z,1013.47
2018-07-15T00:10:58.290Z,1013.46
2018-07-15T00:11:38.856Z,1013.43
2018-07-15T00:12:19.422Z,1013.44
2018-07-15T00:12:59.987Z,1013.42
2018-07-15T00:13:40.552Z,1013.49
2018-07-15T00:14:21.132Z,1013.47
2018-07-15T00:15:01.687Z,1013.44
2018-07-15T00:15:42.251Z,1013.44
2018-07-15T00:16:22.814Z,1013.42
2018-07-15T00:17:03.407Z,1013.43
2018-07-15T00:17:43.938Z,1013.45
2018-07-15T00:18:24.501Z,1013.42
2018-07-15T00:19:05.053Z,1013.43
2018-07-15T00:19:45.616Z,1013.41
2018-07-15T00:20:26.173Z,1013.43
2018-07-15T00:21:06.740Z,1013.45
2018-07-15T00:21:47.304Z,1013.41
2018-07-15T00:22:27.860Z,1013.46
2018-07-15T00:23:08.420Z,1013.43
2018-07-15T00:23:48.983Z,1013.47
2018-07-15T00:24:29.548Z,1013.44
2018-07-15T00:25:10.095Z,1013.46
2018-07-15T00:25:50.684Z,1013.42
2018-07-15T00:26:31.253Z,1013.43
2018-07-15T00:27:11.817Z,1013.4
2018-07-15T00:27:52.368Z,1013.46
2018-07-15T00:28:33.528Z,1013.49
2018-07-15T00:29:14.089Z,1013.47
2018-07-15T00:29:54.661Z,1013.49
2018-07-15T00:30:35.220Z,1013.46
2018-07-15T00:31:15.759Z,1013.5
2018-07-15T00:31:56.318Z,1013.46
2018-07-15T00:32:36.893Z,1013.47
2018-07-15T00:33:17.452Z,1013.48
2018-07-15T00:33:58.000Z,1013.47
2018-07-15T00:34:38.553Z,1013.47
2018-07-15T00:35:19.136Z,1013.42
2018-07-15T00:35:59.709Z,1013.41
2018-07-15T00:36:40.270Z,1013.44
2018-07-15T00:37:20.822Z,1013.42
2018-07-15T00:38:01.379Z,1013.44
2018-07-15T00:38:41.946Z,1013.41
2018-07-15T00:39:22.518Z,1013.41
2018-07-15T00:40:03.088Z,1013.42
2018-07-15T00:40:43.645Z,1013.41
2018-07-15T00:41:24.216Z,1013.41
2018-07-15T00:42:04.780Z,1013.41
2018-07-15T00:42:45.348Z,1013.37
2018-07-15T00:43:25.907Z,1013.39
2018-07-15T00:44:06.464Z,1013.4
2018-07-15T00:44:47.016Z,1013.39
2018-07-15T00:45:27.575Z,1013.37
2018-07-15T00:46:08.137Z,1013.38
2018-07-15T00:46:48.705Z,1013.37
2018-07-15T00:47:29.256Z,1013.4
2018-07-15T00:48:09.817Z,1013.4
2018-07-15T00:48:50.376Z,1013.36
2018-07-15T00:49:30.933Z,1013.36
2018-07-15T00:50:11.493Z,1013.36
2018-07-15T00:50:52.071Z,1013.4
2018-07-15T00:51:32.619Z,1013.39
2018-07-15T00:52:13.202Z,1013.38
2018-07-15T00:52:53.775Z,1013.39
2018-07-15T00:53:34.335Z,1013.37
2018-07-15T00:54:14.891Z,1013.38
2018-07-15T00:54:55.504Z,1013.37
2018-07-15T00:55:36.027Z,1013.39
2018-07-15T00:56:16.595Z,1013.37
2018-07-15T00:56:57.156Z,1013.36
2018-07-15T00:57:37.779Z,1013.36
2018-07-15T00:58:18.315Z,1013.38
2018-07-15T00:58:58.886Z,1013.33
2018-07-15T00:59:39.435Z,1013.38
2018-07-15T01:00:20.006Z,1013.36
2018-07-15T01:01:00.569Z,1013.39
2018-07-15T01:01:41.204Z,1013.38
2018-07-15T01:02:21.772Z,1013.33
2018-07-15T01:03:02.356Z,1013.37
2018-07-15T01:03:42.915Z,1013.35
2018-07-15T01:04:23.473Z,1013.33
2018-07-15T01:05:04.030Z,1013.35
2018-07-15T01:05:44.595Z,1013.36
2018-07-15T01:06:25.154Z,1013.33
2018-07-15T01:07:05.717Z,1013.35
2018-07-15T01:07:46.284Z,1013.34
2018-07-15T01:08:26.853Z,1013.32
2018-07-15T01:09:07.413Z,1013.32
2018-07-15T01:09:48.007Z,1013.33
2018-07-15T01:10:28.571Z,1013.34
2018-07-15T01:11:09.137Z,1013.31
2018-07-15T01:11:49.695Z,1013.33
2018-07-15T01:12:30.249Z,1013.33
2018-07-15T01:13:10.823Z,1013.35
2018-07-15T01:13:51.388Z,1013.33
2018-07-15T01:14:31.985Z,1013.34
2018-07-15T01:15:12.556Z,1013.33
2018-07-15T01:15:53.121Z,1013.33
2018-07-15T01:16:33.716Z,1013.34
2018-07-15T01:17:14.229Z,1013.35
2018-07-15T01:17:54.820Z,1013.37
2018-07-15T01:18:35.386Z,1013.38
2018-07-15T01:19:15.956Z,1013.32
2018-07-15T01:19:56.518Z,1013.36
2018-07-15T01:20:37.075Z,1013.34
2018-07-15T01:21:17.665Z,1013.35
2018-07-15T01:21:58.237Z,1013.37
2018-07-15T01:22:38.799Z,1013.39
2018-07-15T01:23:19.361Z,1013.39
2018-07-15T01:23:59.930Z,1013.35
2018-07-15T01:24:40.497Z,1013.34
2018-07-15T01:25:21.048Z,1013.38
2018-07-15T01:26:01.600Z,1013.36
2018-07-15T01:26:42.152Z,1013.36
2018-07-15T01:27:22.723Z,1013.38
2018-07-15T01:28:03.283Z,1013.37
2018-07-15T01:28:43.864Z,1013.32
2018-07-15T01:29:24.426Z,1013.37
2018-07-15T01:30:04.993Z,1013.32
2018-07-15T01:30:45.549Z,1013.37
2018-07-15T01:31:26.108Z,1013.32
2018-07-15T01:32:06.658Z,1013.29
2018-07-15T01:32:47.204Z,1013.27
2018-07-15T01:33:27.762Z,1013.3
2018-07-15T01:34:08.336Z,1013.26
2018-07-15T01:34:48.905Z,1013.3
2018-07-15T01:35:29.469Z,1013.28
2018-07-15T01:36:10.047Z,1013.29
2018-07-15T01:36:50.607Z,1013.27
2018-07-15T01:37:31.157Z,1013.27
2018-07-15T01:38:11.708Z,1013.34
2018-07-15T01:38:52.261Z,1013.28
2018-07-15T01:39:32.848Z,1013.32
2018-07-15T01:40:13.427Z,1013.29
2018-07-15T01:40:54.008Z,1013.33
2018-07-15T01:41:34.540Z,1013.3
2018-07-15T01:42:15.106Z,1013.31
2018-07-15T01:42:55.682Z,1013.33
2018-07-15T01:43:36.257Z,1013.31
2018-07-15T01:44:16.823Z,1013.29
2018-07-15T01:44:57.396Z,1013.29
2018-07-15T01:45:37.969Z,1013.27
2018-07-15T01:46:18.524Z,1013.26
2018-07-15T01:46:59.069Z,1013.26
2018-07-15T01:47:39.639Z,1013.23
2018-07-15T01:48:20.263Z,1013.24
2018-07-15T01:49:00.785Z,1013.29
2018-07-15T01:49:41.348Z,1013.24
2018-07-15T01:50:21.906Z,1013.28
2018-07-15T01:51:02.457Z,1013.24
2018-07-15T01:51:43.025Z,1013.21
2018-07-15T01:52:23.577Z,1013.21
2018-07-15T01:53:04.129Z,1013.26
2018-07-15T01:53:44.681Z,1013.23
2018-07-15T01:54:25.261Z,1013.27
2018-07-15T01:55:05.802Z,1013.25
2018-07-15T01:55:46.328Z,1013.33
2018-07-15T01:56:26.868Z,1013.28
2018-07-15T01:57:07.437Z,1013.3
2018-07-15T01:57:48.007Z,1013.36
2018-07-15T01:58:28.576Z,1013.33
2018-07-15T01:59:09.129Z,1013.32
2018-07-15T01:59:49.694Z,1013.33
2018-07-15T02:00:30.257Z,1013.3
2018-07-15T02:01:10.812Z,1013.28
2018-07-15T02:01:51.375Z,1013.28
2018-07-15T02:02:31.941Z,1013.29
2018-07-15T02:03:12.492Z,1013.25
2018-07-15T02:03:53.043Z,1013.26
2018-07-15T02:04:33.600Z,1013.26
2018-07-15T02:05:14.169Z,1013.26
2018-07-15T02:05:54.732Z,1013.26
2018-07-15T02:06:35.294Z,1013.24
2018-07-15T02:07:15.864Z,1013.28
2018-07-15T02:07:56.429Z,1013.27
2018-07-15T02:08:36.990Z,1013.25
2018-07-15T02:09:17.576Z,1013.27
2018-07-15T02:09:58.134Z,1013.28
2018-07-15T02:10:38.707Z,1013.28
2018-07-15T02:11:19.277Z,1013.25
2018-07-15T02:11:59.832Z,1013.27
2018-07-15T02:12:40.384Z,1013.26
2018-07-15T02:13:20.952Z,1013.24
2018-07-15T02:14:01.507Z,1013.25
2018-07-15T02:14:42.072Z,1013.22
2018-07-15T02:15:22.643Z,1013.22
2018-07-15T02:16:03.207Z,1013.25
2018-07-15T02:16:43.777Z,1013.22
2018-07-15T02:17:24.323Z,1013.26
2018-07-15T02:18:04.885Z,1013.19
2018-07-15T02:18:45.440Z,1013.25
2018-07-15T02:19:26.012Z,1013.2
2018-07-15T02:20:06.564Z,1013.2
2018-07-15T02:20:47.111Z,1013.23
2018-07-15T02:21:27.677Z,1013.23
2018-07-15T02:22:08.239Z,1013.21
2018-07-15T02:22:48.805Z,1013.21
2018-07-15T02:23:29.392Z,1013.22
2018-07-15T02:24:09.950Z,1013.17
2018-07-15T02:24:50.508Z,1013.15
2018-07-15T02:25:31.058Z,1013.19
2018-07-15T02:26:11.611Z,1013.18
2018-07-15T02:26:52.172Z,1013.19
2018-07-15T02:27:32.737Z,1013.19
2018-07-15T02:28:13.299Z,1013.19
2018-07-15T02:28:53.860Z,1013.17
2018-07-15T02:29:34.431Z,1013.18
2018-07-15T02:30:15.000Z,1013.18
2018-07-15T02:30:55.569Z,1013.2
2018-07-15T02:31:36.126Z,1013.16
2018-07-15T02:32:16.696Z,1013.17
2018-07-15T02:32:57.255Z,1013.11
2018-07-15T02:33:37.813Z,1013.15
2018-07-15T02:34:18.393Z,1013.15
2018-07-15T02:34:58.969Z,1013.16
2018-07-15T02:35:39.535Z,1013.16
2018-07-15T02:36:20.062Z,1013.16
2018-07-15T02:37:00.641Z,1013.16
2018-07-15T02:37:41.191Z,1013.14
2018-07-15T02:38:21.767Z,1013.13
2018-07-15T02:39:02.317Z,1013.15
2018-07-15T02:39:42.869Z,1013.15
2018-07-15T02:40:23.431Z,1013.14
2018-07-15T02:41:03.988Z,1013.13
2018-07-15T02:41:44.573Z,1013.16
2018-07-15T02:42:25.115Z,1013.15
2018-07-15T02:43:05.674Z,1013.16
2018-07-15T02:43:46.245Z,1013.15
2018-07-15T02:44:26.823Z,1013.16
2018-07-15T02:45:07.374Z,1013.17
2018-07-15T02:45:47.930Z,1013.1
2018-07-15T02:46:28.568Z,1013.09
2018-07-15T02:47:09.136Z,1013.12
2018-07-15T02:47:49.705Z,1013.17
2018-07-15T02:48:30.263Z,1013.05
2018-07-15T02:49:10.828Z,1013.1
2018-07-15T02:49:51.398Z,1013.09
2018-07-15T02:50:31.953Z,1013.09
2018-07-15T02:51:12.517Z,1013.09
2018-07-15T02:51:53.080Z,1013.1
2018-07-15T02:52:33.641Z,1013.08
2018-07-15T02:53:14.203Z,1013.09
2018-07-15T02:53:54.771Z,1013.08
2018-07-15T02:54:35.326Z,1013.1
2018-07-15T02:55:15.882Z,1013.07
2018-07-15T02:55:56.460Z,1013.08
2018-07-15T02:56:37.005Z,1013.09
2018-07-15T02:57:17.561Z,1013.09
2018-07-15T02:57:58.123Z,1013.03
2018-07-15T02:58:38.695Z,1013.08
2018-07-15T02:59:19.254Z,1013.06
2018-07-15T02:59:59.811Z,1013.05
2018-07-15T03:00:40.380Z,1013.03
2018-07-15T03:01:20.940Z,1013.04
2018-07-15T03:02:01.489Z,1013.05
2018-07-15T03:02:42.032Z,1013.09
2018-07-15T03:03:22.593Z,1013.06
2018-07-15T03:04:03.185Z,1013.03
2018-07-15T03:04:43.754Z,1013.06
2018-07-15T03:05:24.351Z,1013.11
2018-07-15T03:06:04.922Z,1013.13
2018-07-15T03:06:45.488Z,1013.11
2018-07-15T03:07:26.052Z,1013.11
2018-07-15T03:08:06.617Z,1013.1
2018-07-15T03:08:47.169Z,1013.09
2018-07-15T03:09:27.754Z,1013.11
2018-07-15T03:10:08.303Z,1013.09
2018-07-15T03:10:48.872Z,1013.09
2018-07-15T03:11:29.432Z,1013.08
2018-07-15T03:12:10.014Z,1013.09
2018-07-15T03:12:50.586Z,1013.09
2018-07-15T03:13:31.160Z,1013.12
2018-07-15T03:14:11.722Z,1013.1
2018-07-15T03:14:52.298Z,1013.1
2018-07-15T03:15:32.864Z,1013.1
2018-07-15T03:16:13.433Z,1013.1
2018-07-15T03:16:54.008Z,1013.12
2018-07-15T03:17:34.578Z,1013.09
2018-07-15T03:18:15.141Z,1013.11
2018-07-15T03:18:55.711Z,1013.14
2018-07-15T03:19:36.296Z,1013.08
2018-07-15T03:20:16.858Z,1013.13
2018-07-15T03:20:57.425Z,1013.13
2018-07-15T03:21:37.990Z,1013.14
2018-07-15T03:22:18.541Z,1013.15
2018-07-15T03:22:59.096Z,1013.18
2018-07-15T03:23:39.646Z,1013.17
2018-07-15T03:24:20.188Z,1013.15
2018-07-15T03:25:00.749Z,1013.15
2018-07-15T03:25:41.327Z,1013.19
2018-07-15T03:26:21.902Z,1013.21
2018-07-15T03:27:02.468Z,1013.2
2018-07-15T03:27:43.037Z,1013.21
2018-07-15T03:28:23.597Z,1013.22
2018-07-15T03:29:04.145Z,1013.2
2018-07-15T03:29:44.700Z,1013.17
2018-07-15T03:30:25.261Z,1013.18
2018-07-15T03:31:05.847Z,1013.17
2018-07-15T03:31:46.408Z,1013.18
2018-07-15T03:32:26.976Z,1013.18
2018-07-15T03:33:07.529Z,1013.16
2018-07-15T03:33:48.104Z,1013.2
2018-07-15T03:34:28.672Z,1013.2
2018-07-15T03:35:09.239Z,1013.2
2018-07-15T03:35:49.804Z,1013.21
2018-07-15T03:36:30.369Z,1013.22
2018-07-15T03:37:10.921Z,1013.2
2018-07-15T03:37:51.472Z,1013.23
2018-07-15T03:38:32.025Z,1013.18
2018-07-15T03:39:12.590Z,1013.2
2018-07-15T03:39:53.147Z,1013.25
2018-07-15T03:40:33.701Z,1013.19
2018-07-15T03:41:14.265Z,1013.18
2018-07-15T03:41:54.820Z,1013.2
2018-07-15T03:42:35.391Z,1013.23
2018-07-15T03:43:15.975Z,1013.18
2018-07-15T03:43:56.509Z,1013.19
2018-07-15T03:44:37.088Z,1013.23
2018-07-15T03:45:17.637Z,1013.16
2018-07-15T03:45:58.201Z,1013.17
2018-07-15T03:46:38.753Z,1013.16
2018-07-15T03:47:19.307Z,1013.18
2018-07-15T03:47:59.869Z,1013.2
2018-07-15T03:48:40.441Z,1013.21
2018-07-15T03:49:21.014Z,1013.23
2018-07-15T03:50:01.579Z,1013.2
2018-07-15T03:50:42.145Z,1013.23
2018-07-15T03:51:22.707Z,1013.18
2018-07-15T03:52:03.297Z,1013.2
2018-07-15T03:52:43.866Z,1013.19
2018-07-15T03:53:24.425Z,1013.19
2018-07-15T03:54:05.057Z,1013.2
2018-07-15T03:54:45.618Z,1013.2
2018-07-15T03:55:26.183Z,1013.21
2018-07-15T03:56:06.757Z,1013.22
2018-07-15T03:56:47.319Z,1013.22
2018-07-15T03:57:27.880Z,1013.21
2018-07-15T03:58:08.443Z,1013.21
2018-07-15T03:58:48.992Z,1013.24
2018-07-15T03:59:29.556Z,1013.21
2018-07-15T04:00:10.114Z,1013.23
2018-07-15T04:00:50.771Z,1013.24
2018-07-15T04:01:31.258Z,1013.23
2018-07-15T04:02:11.840Z,1013.22
2018-07-15T04:02:52.429Z,1013.22
2018-07-15T04:03:32.996Z,1013.22
2018-07-15T04:04:13.557Z,1013.27
2018-07-15T04:04:54.111Z,1013.25
2018-07-15T04:05:34.669Z,1013.25
2018-07-15T04:06:15.272Z,1013.29
2018-07-15T04:06:55.846Z,1013.29
2018-07-15T04:07:36.440Z,1013.31
2018-07-15T04:08:17.020Z,1013.32
2018-07-15T04:08:57.705Z,1013.33
2018-07-15T04:09:38.145Z,1013.28
2018-07-15T04:10:18.731Z,1013.32
2018-07-15T04:10:59.296Z,1013.31
2018-07-15T04:11:39.862Z,1013.32
2018-07-15T04:12:20.407Z,1013.29
2018-07-15T04:13:00.970Z,1013.28
2018-07-15T04:13:41.523Z,1013.26
2018-07-15T04:14:22.094Z,1013.23
2018-07-15T04:15:02.622Z,1013.26
2018-07-15T04:15:43.194Z,1013.26
2018-07-15T04:16:23.758Z,1013.29
2018-07-15T04:17:04.311Z,1013.32
2018-07-15T04:17:44.886Z,1013.25
2018-07-15T04:18:25.438Z,1013.31
2018-07-15T04:19:05.998Z,1013.3
2018-07-15T04:19:46.568Z,1013.28
2018-07-15T04:20:27.118Z,1013.34
2018-07-15T04:21:07.671Z,1013.33
2018-07-15T04:21:48.229Z,1013.33
2018-07-15T04:22:28.789Z,1013.32
2018-07-15T04:23:09.350Z,1013.34
2018-07-15T04:23:49.904Z,1013.33
2018-07-15T04:24:30.470Z,1013.32
2018-07-15T04:25:11.027Z,1013.3
2018-07-15T04:25:51.595Z,1013.32
2018-07-15T04:26:32.158Z,1013.33
2018-07-15T04:27:12.709Z,1013.33
2018-07-15T04:27:53.271Z,1013.32
2018-07-15T04:28:33.829Z,1013.37
2018-07-15T04:29:14.404Z,1013.31
2018-07-15T04:29:54.966Z,1013.33
2018-07-15T04:30:35.551Z,1013.32
2018-07-15T04:31:16.117Z,1013.29
2018-07-15T04:31:56.674Z,1013.27
2018-07-15T04:32:37.247Z,1013.29
2018-07-15T04:33:17.823Z,1013.31
2018-07-15T04:33:58.385Z,1013.31
2018-07-15T04:34:38.958Z,1013.31
2018-07-15T04:35:19.520Z,1013.31
2018-07-15T04:36:00.092Z,1013.36
2018-07-15T04:36:40.654Z,1013.34
2018-07-15T04:37:21.205Z,1013.34
2018-07-15T04:38:01.840Z,1013.32
2018-07-15T04:38:42.325Z,1013.33
2018-07-15T04:39:22.886Z,1013.37
2018-07-15T04:40:03.440Z,1013.37
2018-07-15T04:40:44.005Z,1013.36
2018-07-15T04:41:24.589Z,1013.35
2018-07-15T04:42:05.146Z,1013.33
2018-07-15T04:42:45.703Z,1013.41
2018-07-15T04:43:26.262Z,1013.43
2018-07-15T04:44:06.832Z,1013.44
2018-07-15T04:44:47.393Z,1013.42
2018-07-15T04:45:27.974Z,1013.41
2018-07-15T04:46:08.526Z,1013.41
2018-07-15T04:46:49.085Z,1013.45
2018-07-15T04:47:29.655Z,1013.44
2018-07-15T04:48:10.224Z,1013.45
2018-07-15T04:48:50.785Z,1013.49
2018-07-15T04:49:31.350Z,1013.46
2018-07-15T04:50:11.920Z,1013.48
2018-07-15T04:50:52.470Z,1013.51
2018-07-15T04:51:33.017Z,1013.49
2018-07-15T04:52:13.594Z,1013.5
2018-07-15T04:52:54.157Z,1013.51
2018-07-15T04:53:34.716Z,1013.5
2018-07-15T04:54:15.268Z,1013.52
2018-07-15T04:54:55.825Z,1013.53
2018-07-15T04:55:36.413Z,1013.51
2018-07-15T04:56:16.966Z,1013.56
2018-07-15T04:56:57.529Z,1013.51
2018-07-15T04:57:38.089Z,1013.54
2018-07-15T04:58:18.658Z,1013.53
2018-07-15T04:58:59.205Z,1013.52
2018-07-15T04:59:39.774Z,1013.49
2018-07-15T05:00:20.354Z,1013.57
2018-07-15T05:01:00.927Z,1013.56
2018-07-15T05:01:41.495Z,1013.58
2018-07-15T05:02:22.054Z,1013.54
2018-07-15T05:03:02.625Z,1013.59
2018-07-15T05:03:43.180Z,1013.57
2018-07-15T05:04:23.745Z,1013.56
2018-07-15T05:05:04.314Z,1013.54
2018-07-15T05:05:44.890Z,1013.57
2018-07-15T05:06:25.459Z,1013.53
2018-07-15T05:07:06.010Z,1013.6
2018-07-15T05:07:46.574Z,1013.58
2018-07-15T05:08:27.140Z,1013.55
2018-07-15T05:09:07.692Z,1013.58
2018-07-15T05:09:48.260Z,1013.58
2018-07-15T05:10:28.823Z,1013.61
2018-07-15T05:11:09.403Z,1013.62
2018-07-15T05:11:49.959Z,1013.58
2018-07-15T05:12:30.529Z,1013.58
2018-07-15T05:13:11.084Z,1013.62
2018-07-15T05:13:51.648Z,1013.62
2018-07-15T05:14:32.195Z,1013.62
2018-07-15T05:15:12.743Z,1013.67
2018-07-15T05:15:53.308Z,1013.6
2018-07-15T05:16:33.877Z,1013.63
2018-07-15T05:17:14.449Z,1013.59
2018-07-15T05:17:55.006Z,1013.6
2018-07-15T05:18:35.569Z,1013.62
2018-07-15T05:19:16.126Z,1013.64
2018-07-15T05:19:56.686Z,1013.6
2018-07-15T05:20:37.278Z,1013.63
2018-07-15T05:21:17.844Z,1013.64
2018-07-15T05:21:58.409Z,1013.64
2018-07-15T05:22:38.968Z,1013.63
2018-07-15T05:23:19.516Z,1013.64
2018-07-15T05:24:00.087Z,1013.69
2018-07-15T05:24:40.671Z,1013.69
2018-07-15T05:25:21.251Z,1013.7
2018-07-15T05:26:01.818Z,1013.7
2018-07-15T05:26:42.379Z,1013.76
2018-07-15T05:27:22.951Z,1013.7
2018-07-15T05:28:03.514Z,1013.73
2018-07-15T05:28:44.063Z,1013.69
2018-07-15T05:29:24.616Z,1013.73
2018-07-15T05:30:05.222Z,1013.74
2018-07-15T05:30:45.783Z,1013.75
2018-07-15T05:31:26.346Z,1013.74
2018-07-15T05:32:06.911Z,1013.74
2018-07-15T05:32:47.491Z,1013.77
2018-07-15T05:33:28.029Z,1013.77
2018-07-15T05:34:08.598Z,1013.78
2018-07-15T05:34:49.197Z,1013.8
2018-07-15T05:35:29.726Z,1013.81
2018-07-15T05:36:10.289Z,1013.83
2018-07-15T05:36:50.859Z,1013.83
2018-07-15T05:37:31.427Z,1013.86
2018-07-15T05:38:11.991Z,1013.88
2018-07-15T05:38:52.557Z,1013.89
2018-07-15T05:39:33.115Z,1013.87
2018-07-15T05:40:13.686Z,1013.97
2018-07-15T05:40:54.250Z,1013.96
2018-07-15T05:41:34.830Z,1013.96
2018-07-15T05:42:15.388Z,1014.07
2018-07-15T05:42:55.965Z,1014.03
2018-07-15T05:43:36.545Z,1014.09
2018-07-15T05:44:17.173Z,1014.04
2018-07-15T05:44:57.667Z,1014.07
2018-07-15T05:45:38.238Z,1014.08
2018-07-15T05:46:18.791Z,1014.17
2018-07-15T05:46:59.346Z,1014.15
2018-07-15T05:47:39.943Z,1014.19
2018-07-15T05:48:20.501Z,1014.2
2018-07-15T05:49:01.067Z,1014.25
2018-07-15T05:49:41.648Z,1014.23
2018-07-15T05:50:22.205Z,1014.3
2018-07-15T05:51:02.780Z,1014.31
2018-07-15T05:51:43.361Z,1014.36
2018-07-15T05:52:23.985Z,1014.38
2018-07-15T05:53:04.560Z,1014.47
2018-07-15T05:53:45.121Z,1014.51
2018-07-15T05:54:25.681Z,1014.54
2018-07-15T05:55:06.255Z,1014.64
2018-07-15T05:55:46.821Z,1014.66
2018-07-15T05:56:27.396Z,1014.71
2018-07-15T05:57:07.954Z,1014.7
2018-07-15T05:57:48.533Z,1014.76
2018-07-15T05:58:29.106Z,1014.91
2018-07-15T05:59:09.662Z,1014.96
2018-07-15T05:59:50.234Z,1015.11
2018-07-15T06:00:30.811Z,1015.15
2018-07-15T06:01:11.399Z,1015.09
2018-07-15T06:01:51.983Z,1015.08
2018-07-15T06:02:32.557Z,1015.2
2018-07-15T06:03:13.138Z,1015.3
2018-07-15T06:03:53.717Z,1015.43
2018-07-15T06:04:34.288Z,1015.54
2018-07-15T06:05:14.864Z,1015.61
2018-07-15T06:05:55.432Z,1015.53
2018-07-15T06:06:36.006Z,1015.55
2018-07-15T06:07:16.574Z,1015.53
2018-07-15T06:07:57.124Z,1015.58
2018-07-15T06:08:37.691Z,1015.5
2018-07-15T06:09:18.263Z,1015.44
2018-07-15T06:09:58.834Z,1015.4
2018-07-15T06:10:39.428Z,1015.42
2018-07-15T06:11:19.981Z,1015.36
2018-07-15T06:12:00.563Z,1015.27
2018-07-15T06:12:41.145Z,1015.09
2018-07-15T06:13:21.713Z,1014.96
2018-07-15T06:14:02.274Z,1014.95
2018-07-15T06:14:42.836Z,1014.97
2018-07-15T06:15:23.441Z,1014.99
2018-07-15T06:16:04.042Z,1014.98
2018-07-15T06:16:44.606Z,1014.96
2018-07-15T06:17:25.391Z,1014.94
2018-07-15T06:18:06.069Z,1014.8
2018-07-15T06:18:46.558Z,1014.73
2018-07-15T06:19:27.104Z,1014.66
2018-07-15T06:20:07.766Z,1014.55
2018-07-15T06:20:48.388Z,1014.65
2018-07-15T06:21:28.964Z,1014.75
2018-07-15T06:22:09.530Z,1014.86
2018-07-15T06:22:50.189Z,1014.95
2018-07-15T06:23:30.684Z,1014.99
2018-07-15T06:24:11.332Z,1014.83
2018-07-15T06:24:51.909Z,1014.73
2018-07-15T06:25:32.522Z,1014.8
2018-07-15T06:26:13.094Z,1014.85
2018-07-15T06:26:53.641Z,1014.83
2018-07-15T06:27:34.205Z,1014.83
2018-07-15T06:28:14.771Z,1014.79
2018-07-15T06:28:55.362Z,1014.76
2018-07-15T06:29:35.950Z,1014.87
2018-07-15T06:30:16.522Z,1014.88
2018-07-15T06:30:57.079Z,1014.92
2018-07-15T06:31:37.650Z,1014.9
2018-07-15T06:32:18.216Z,1014.92
2018-07-15T06:32:58.781Z,1014.89
2018-07-15T06:33:39.361Z,1014.89
2018-07-15T06:34:19.933Z,1014.87
2018-07-15T06:35:00.510Z,1014.91
2018-07-15T06:35:41.091Z,1015.05
2018-07-15T06:36:21.662Z,1015.2
2018-07-15T06:37:02.238Z,1015.28
2018-07-15T06:37:42.855Z,1015.18
2018-07-15T06:38:23.423Z,1015.08
2018-07-15T06:39:04.018Z,1015.12
2018-07-15T06:39:44.722Z,1015.19
2018-07-15T06:40:25.303Z,1015.26
2018-07-15T06:41:05.887Z,1015.32
2018-07-15T06:41:46.470Z,1015.44
2018-07-15T06:42:27.045Z,1015.52
2018-07-15T06:43:07.641Z,1015.37
2018-07-15T06:43:48.226Z,1015.21
2018-07-15T06:44:28.793Z,1015.05
2018-07-15T06:45:09.371Z,1015.03
2018-07-15T06:45:49.945Z,1014.92
2018-07-15T06:46:30.533Z,1014.7
2018-07-15T06:47:11.903Z,1014.5
2018-07-15T06:47:52.525Z,1014.34
2018-07-15T06:48:33.104Z,1014.29
2018-07-15T06:49:13.733Z,1014.24
2018-07-15T06:49:54.279Z,1014.18
2018-07-15T06:50:34.863Z,1014.19
2018-07-15T06:51:15.459Z,1014.17
2018-07-15T06:51:55.975Z,1014.13
2018-07-15T06:52:36.553Z,1014.14
2018-07-15T06:53:17.127Z,1014.18
2018-07-15T06:53:57.691Z,1014.13
2018-07-15T06:54:38.255Z,1014.15
2018-07-15T06:55:18.824Z,1014.16
2018-07-15T06:55:59.394Z,1014.21
2018-07-15T06:56:39.960Z,1014.39
2018-07-15T06:57:20.553Z,1014.53
2018-07-15T06:58:01.167Z,1014.51
2018-07-15T06:58:41.793Z,1014.34
2018-07-15T06:59:22.463Z,1014.2
2018-07-15T07:00:03.018Z,1014.14
2018-07-15T07:00:43.580Z,1014.13
2018-07-15T07:01:24.246Z,1014.06
2018-07-15T07:02:04.777Z,1014.03
2018-07-15T07:02:45.332Z,1014.02
2018-07-15T07:03:26.008Z,1014.01
2018-07-15T07:04:06.612Z,1014.04
2018-07-15T07:04:47.270Z,1014.03
2018-07-15T07:05:27.858Z,1014.02
2018-07-15T07:06:08.390Z,1014.02
2018-07-15T07:06:48.961Z,1014.01
2018-07-15T07:07:29.602Z,1014.01
2018-07-15T07:08:10.136Z,1014.01
2018-07-15T07:08:50.801Z,1014.02
2018-07-15T07:09:31.382Z,1013.99
2018-07-15T07:10:11.956Z,1013.97
2018-07-15T07:10:52.519Z,1014.02
2018-07-15T07:11:33.066Z,1014
2018-07-15T07:12:13.634Z,1014.02
2018-07-15T07:12:54.217Z,1014.08
2018-07-15T07:13:34.776Z,1014.04
2018-07-15T07:14:15.374Z,1014.14
2018-07-15T07:14:55.908Z,1014.24
2018-07-15T07:15:36.462Z,1014.28
2018-07-15T07:16:17.012Z,1014.07
2018-07-15T07:16:57.580Z,1014.13
2018-07-15T07:17:38.164Z,1014.07
2018-07-15T07:18:18.711Z,1014.02
2018-07-15T07:18:59.270Z,1014.04
2018-07-15T07:19:39.838Z,1014.01
2018-07-15T07:20:20.403Z,1014
2018-07-15T07:21:00.967Z,1014.01
2018-07-15T07:21:41.541Z,1014.05
2018-07-15T07:22:22.113Z,1014.02
2018-07-15T07:23:02.692Z,1014.07
2018-07-15T07:23:43.260Z,1014.05
2018-07-15T07:24:23.837Z,1014.04
2018-07-15T07:25:04.403Z,1014.02
2018-07-15T07:25:44.988Z,1014.06
2018-07-15T07:26:25.575Z,1014.08
2018-07-15T07:27:06.141Z,1014.03
2018-07-15T07:27:46.706Z,1014.12
2018-07-15T07:28:27.311Z,1014.14
2018-07-15T07:29:07.849Z,1014.17
2018-07-15T07:29:48.419Z,1014.14
2018-07-15T07:30:29.004Z,1014.16
2018-07-15T07:31:09.589Z,1014.17
2018-07-15T07:31:50.170Z,1014.22
2018-07-15T07:32:30.751Z,1014.19
2018-07-15T07:33:11.336Z,1014.07
2018-07-15T07:33:51.906Z,1014.07
2018-07-15T07:34:32.488Z,1014.1
2018-07-15T07:35:13.063Z,1014.04
2018-07-15T07:35:53.649Z,1013.99
2018-07-15T07:36:34.209Z,1013.89
2018-07-15T07:37:14.788Z,1014
2018-07-15T07:37:55.355Z,1014.03
2018-07-15T07:38:35.987Z,1013.97
2018-07-15T07:39:16.510Z,1013.96
2018-07-15T07:39:57.105Z,1013.97
2018-07-15T07:40:37.670Z,1014
2018-07-15T07:41:18.264Z,1013.97
2018-07-15T07:41:58.841Z,1013.95
2018-07-15T07:42:39.421Z,1013.96
2018-07-15T07:43:19.979Z,1013.94
2018-07-15T07:44:00.567Z,1013.94
2018-07-15T07:44:41.141Z,1013.96
2018-07-15T07:45:21.719Z,1013.99
2018-07-15T07:46:02.284Z,1013.96
2018-07-15T07:46:42.868Z,1013.95
2018-07-15T07:47:23.436Z,1013.95
2018-07-15T07:48:04.018Z,1013.97
2018-07-15T07:48:44.601Z,1013.95
2018-07-15T07:49:25.196Z,1013.93
2018-07-15T07:50:05.786Z,1013.94
2018-07-15T07:50:46.320Z,1013.95
2018-07-15T07:51:26.905Z,1013.92
2018-07-15T07:52:07.482Z,1013.93
2018-07-15T07:52:48.052Z,1013.95
2018-07-15T07:53:28.602Z,1013.9
2018-07-15T07:54:09.195Z,1013.9
2018-07-15T07:54:49.779Z,1013.91
2018-07-15T07:55:30.359Z,1013.9
2018-07-15T07:56:10.917Z,1013.99
2018-07-15T07:56:51.491Z,1013.92
2018-07-15T07:57:32.058Z,1013.93
2018-07-15T07:58:12.633Z,1013.93
2018-07-15T07:58:53.218Z,1013.89
2018-07-15T07:59:33.768Z,1013.87
2018-07-15T08:00:14.372Z,1013.84
2018-07-15T08:00:54.947Z,1013.87
2018-07-15T08:01:35.514Z,1013.86
2018-07-15T08:02:16.073Z,1013.87
2018-07-15T08:02:56.638Z,1013.85
2018-07-15T08:03:37.227Z,1013.88
2018-07-15T08:04:17.796Z,1013.88
2018-07-15T08:04:58.371Z,1013.81
2018-07-15T08:05:38.943Z,1013.8
2018-07-15T08:06:19.535Z,1013.8
2018-07-15T08:07:00.123Z,1013.83
2018-07-15T08:07:40.733Z,1013.81
2018-07-15T08:08:21.270Z,1013.84
2018-07-15T08:09:01.852Z,1013.78
2018-07-15T08:09:42.417Z,1013.73
2018-07-15T08:10:22.986Z,1013.76
2018-07-15T08:11:03.572Z,1013.75
2018-07-15T08:11:44.130Z,1013.76
2018-07-15T08:12:24.726Z,1013.76